sensor_id;sensor_type;location;lat;lon;timestamp;pressure;altitude;pressure_sealevel;temperature;humidity
72961;BME280;61141;46.204;19.774;2024-01-15T00:00:22;99393.94;;;0.52;100.00
72961;BME280;61141;46.204;19.774;2024-01-15T00:03:25;99402.81;;;0.52;100.00
72961;BME280;61141;46.204;19.774;2024-01-15T00:06:28;99399.72;;;0.63;100.00
72961;BME280;61141;46.204;19.774;2024-01-15T00:09:31;99393.00;;;0.48;100.00
72961;BME280;61141;46.204;19.774;2024-01-15T00:12:34;99390.31;;;0.48;100.00
72961;BME280;61141;46.204;19.774;2024-01-15T00:15:37;99376.16;;;0.30;100.00
72961;BME280;61141;46.204;19.774;2024-01-15T00:18:39;99379.81;;;0.26;100.00
72961;BME280;61141;46.204;19.774;2024-01-15T00:21:43;99364.94;;;0.20;100.00
72961;BME280;61141;46.204;19.774;2024-01-15T00:24:46;99361.88;;;0.00;100.00
72961;BME280;61141;46.204;19.774;2024-01-15T00:27:49;99372.41;;;0.14;100.00
72961;BME280;61141;46.204;19.774;2024-01-15T00:30:51;99361.50;;;0.19;100.00
72961;BME280;61141;46.204;19.774;2024-01-15T00:33:55;99359.69;;;-0.06;100.00
72961;BME280;61141;46.204;19.774;2024-01-15T00:36:57;99362.84;;;-0.04;100.00
72961;BME280;61141;46.204;19.774;2024-01-15T00:40:00;99357.00;;;-0.06;100.00
72961;BME280;61141;46.204;19.774;2024-01-15T00:43:03;99360.31;;;-0.01;100.00
72961;BME280;61141;46.204;19.774;2024-01-15T00:46:07;99335.00;;;-0.08;100.00
72961;BME280;61141;46.204;19.774;2024-01-15T00:49:09;99335.38;;;-0.27;100.00
72961;BME280;61141;46.204;19.774;2024-01-15T00:52:12;99356.22;;;-0.07;100.00
72961;BME280;61141;46.204;19.774;2024-01-15T00:55:15;99339.84;;;-0.31;100.00
72961;BME280;61141;46.204;19.774;2024-01-15T00:58:18;99338.22;;;-0.23;100.00
72961;BME280;61141;46.204;19.774;2024-01-15T01:01:21;99333.97;;;-0.33;100.00
72961;BME280;61141;46.204;19.774;2024-01-15T01:04:24;99318.81;;;-0.37;100.00
72961;BME280;61141;46.204;19.774;2024-01-15T01:07:27;99315.50;;;-0.43;100.00
72961;BME280;61141;46.204;19.774;2024-01-15T01:10:30;99317.88;;;-0.41;100.00
72961;BME280;61141;46.204;19.774;2024-01-15T01:13:33;99318.03;;;-0.46;100.00
72961;BME280;61141;46.204;19.774;2024-01-15T01:16:36;99309.75;;;-0.24;100.00
72961;BME280;61141;46.204;19.774;2024-01-15T01:19:41;99301.72;;;-0.41;100.00
72961;BME280;61141;46.204;19.774;2024-01-15T01:22:45;99295.00;;;-0.18;100.00
72961;BME280;61141;46.204;19.774;2024-01-15T01:25:47;99315.53;;;-0.51;100.00
72961;BME280;61141;46.204;19.774;2024-01-15T01:28:50;99310.50;;;-0.53;100.00
72961;BME280;61141;46.204;19.774;2024-01-15T01:31:53;99304.72;;;-0.34;100.00
72961;BME280;61141;46.204;19.774;2024-01-15T01:34:56;99301.88;;;-0.38;100.00
72961;BME280;61141;46.204;19.774;2024-01-15T01:37:58;99286.81;;;-0.30;100.00
72961;BME280;61141;46.204;19.774;2024-01-15T01:41:02;99276.87;;;-0.38;100.00
72961;BME280;61141;46.204;19.774;2024-01-15T01:44:04;99269.22;;;-0.57;100.00
72961;BME280;61141;46.204;19.774;2024-01-15T01:47:07;99231.72;;;-0.53;100.00
72961;BME280;61141;46.204;19.774;2024-01-15T01:50:10;99260.38;;;0.01;100.00
72961;BME280;61141;46.204;19.774;2024-01-15T01:53:14;99277.25;;;-0.19;100.00
72961;BME280;61141;46.204;19.774;2024-01-15T01:56:18;99257.03;;;-0.17;100.00
72961;BME280;61141;46.204;19.774;2024-01-15T01:59:22;99258.28;;;-0.14;100.00
72961;BME280;61141;46.204;19.774;2024-01-15T02:02:26;99250.62;;;-0.41;100.00
72961;BME280;61141;46.204;19.774;2024-01-15T02:05:29;99253.69;;;-0.51;100.00
72961;BME280;61141;46.204;19.774;2024-01-15T02:08:34;99251.03;;;-0.60;100.00
72961;BME280;61141;46.204;19.774;2024-01-15T02:11:37;99263.41;;;-0.76;100.00
72961;BME280;61141;46.204;19.774;2024-01-15T02:14:40;99250.44;;;-0.74;100.00
72961;BME280;61141;46.204;19.774;2024-01-15T02:18:02;99251.56;;;-0.75;100.00
72961;BME280;61141;46.204;19.774;2024-01-15T02:21:05;99247.37;;;-0.55;100.00
72961;BME280;61141;46.204;19.774;2024-01-15T02:24:08;99220.12;;;-0.45;100.00
72961;BME280;61141;46.204;19.774;2024-01-15T02:27:11;99216.19;;;-0.19;100.00
72961;BME280;61141;46.204;19.774;2024-01-15T02:30:15;99231.19;;;0.12;100.00
72961;BME280;61141;46.204;19.774;2024-01-15T02:33:18;99231.25;;;0.24;100.00
72961;BME280;61141;46.204;19.774;2024-01-15T02:36:21;99222.91;;;0.37;100.00
72961;BME280;61141;46.204;19.774;2024-01-15T02:39:24;99213.38;;;0.61;100.00
72961;BME280;61141;46.204;19.774;2024-01-15T02:42:27;99210.88;;;0.55;100.00
72961;BME280;61141;46.204;19.774;2024-01-15T02:45:29;99209.47;;;0.70;100.00
72961;BME280;61141;46.204;19.774;2024-01-15T02:48:33;99200.94;;;0.68;100.00
72961;BME280;61141;46.204;19.774;2024-01-15T02:51:37;99194.38;;;0.90;100.00
72961;BME280;61141;46.204;19.774;2024-01-15T02:54:40;99186.09;;;1.07;100.00
72961;BME280;61141;46.204;19.774;2024-01-15T02:57:43;99166.34;;;1.15;100.00
72961;BME280;61141;46.204;19.774;2024-01-15T03:00:46;99160.50;;;1.25;100.00
72961;BME280;61141;46.204;19.774;2024-01-15T03:03:49;99155.31;;;1.44;100.00
72961;BME280;61141;46.204;19.774;2024-01-15T03:06:52;99168.03;;;1.56;100.00
72961;BME280;61141;46.204;19.774;2024-01-15T03:09:55;99159.81;;;1.64;100.00
72961;BME280;61141;46.204;19.774;2024-01-15T03:12:58;99156.09;;;1.69;100.00
72961;BME280;61141;46.204;19.774;2024-01-15T03:16:00;99152.28;;;1.70;100.00
72961;BME280;61141;46.204;19.774;2024-01-15T03:19:03;99160.25;;;1.78;100.00
72961;BME280;61141;46.204;19.774;2024-01-15T03:22:06;99150.03;;;1.72;100.00
72961;BME280;61141;46.204;19.774;2024-01-15T03:25:11;99142.59;;;1.69;100.00
72961;BME280;61141;46.204;19.774;2024-01-15T03:28:13;99144.84;;;1.79;100.00
72961;BME280;61141;46.204;19.774;2024-01-15T03:31:16;99137.25;;;1.97;100.00
72961;BME280;61141;46.204;19.774;2024-01-15T03:34:19;99136.88;;;2.10;100.00
72961;BME280;61141;46.204;19.774;2024-01-15T03:37:22;99134.56;;;1.97;100.00
72961;BME280;61141;46.204;19.774;2024-01-15T03:40:25;99130.25;;;2.08;100.00
72961;BME280;61141;46.204;19.774;2024-01-15T03:43:28;99119.25;;;2.01;100.00
72961;BME280;61141;46.204;19.774;2024-01-15T03:46:31;99118.44;;;2.12;100.00
72961;BME280;61141;46.204;19.774;2024-01-15T03:49:34;99128.00;;;2.10;100.00
72961;BME280;61141;46.204;19.774;2024-01-15T03:52:36;99128.59;;;2.31;100.00
72961;BME280;61141;46.204;19.774;2024-01-15T03:55:40;99127.50;;;2.20;100.00
72961;BME280;61141;46.204;19.774;2024-01-15T03:58:43;99123.38;;;2.10;100.00
72961;BME280;61141;46.204;19.774;2024-01-15T04:01:49;99098.06;;;2.15;100.00
72961;BME280;61141;46.204;19.774;2024-01-15T04:04:54;99089.69;;;2.20;100.00
72961;BME280;61141;46.204;19.774;2024-01-15T04:07:56;99100.09;;;2.33;100.00
72961;BME280;61141;46.204;19.774;2024-01-15T04:10:59;99093.22;;;2.36;100.00
72961;BME280;61141;46.204;19.774;2024-01-15T04:14:02;99093.03;;;2.57;100.00
72961;BME280;61141;46.204;19.774;2024-01-15T04:17:05;99082.91;;;2.54;100.00
72961;BME280;61141;46.204;19.774;2024-01-15T04:20:07;99073.03;;;2.61;100.00
72961;BME280;61141;46.204;19.774;2024-01-15T04:23:11;99084.72;;;2.65;100.00
72961;BME280;61141;46.204;19.774;2024-01-15T04:26:13;99084.66;;;2.62;100.00
72961;BME280;61141;46.204;19.774;2024-01-15T04:29:16;99072.63;;;2.75;100.00
72961;BME280;61141;46.204;19.774;2024-01-15T04:32:19;99070.34;;;2.61;100.00
72961;BME280;61141;46.204;19.774;2024-01-15T04:35:22;99055.78;;;2.50;100.00
72961;BME280;61141;46.204;19.774;2024-01-15T04:38:24;99052.12;;;2.58;100.00
72961;BME280;61141;46.204;19.774;2024-01-15T04:41:27;99030.81;;;2.41;100.00
72961;BME280;61141;46.204;19.774;2024-01-15T04:44:30;99044.62;;;2.67;100.00
72961;BME280;61141;46.204;19.774;2024-01-15T04:47:33;99049.25;;;2.67;100.00
72961;BME280;61141;46.204;19.774;2024-01-15T04:50:36;99048.13;;;2.83;100.00
72961;BME280;61141;46.204;19.774;2024-01-15T04:53:39;99046.88;;;2.96;100.00
72961;BME280;61141;46.204;19.774;2024-01-15T04:56:41;99045.81;;;3.01;100.00
72961;BME280;61141;46.204;19.774;2024-01-15T04:59:44;99044.34;;;3.04;100.00
72961;BME280;61141;46.204;19.774;2024-01-15T05:02:47;99044.53;;;2.95;100.00
72961;BME280;61141;46.204;19.774;2024-01-15T05:05:50;99026.28;;;2.76;100.00
72961;BME280;61141;46.204;19.774;2024-01-15T05:08:53;99029.38;;;2.75;100.00
72961;BME280;61141;46.204;19.774;2024-01-15T05:11:56;99036.88;;;2.81;100.00
72961;BME280;61141;46.204;19.774;2024-01-15T05:14:58;99044.44;;;2.91;100.00
72961;BME280;61141;46.204;19.774;2024-01-15T05:18:01;99045.50;;;2.87;100.00
72961;BME280;61141;46.204;19.774;2024-01-15T05:21:04;99043.38;;;3.12;100.00
72961;BME280;61141;46.204;19.774;2024-01-15T05:24:08;99038.34;;;2.94;100.00
72961;BME280;61141;46.204;19.774;2024-01-15T05:27:10;99021.16;;;2.87;100.00
72961;BME280;61141;46.204;19.774;2024-01-15T05:30:14;99030.91;;;2.91;100.00
72961;BME280;61141;46.204;19.774;2024-01-15T05:33:16;99026.63;;;2.90;100.00
72961;BME280;61141;46.204;19.774;2024-01-15T05:36:20;99023.59;;;2.92;100.00
72961;BME280;61141;46.204;19.774;2024-01-15T05:39:23;99031.19;;;2.86;100.00
72961;BME280;61141;46.204;19.774;2024-01-15T05:42:26;99033.97;;;3.06;100.00
72961;BME280;61141;46.204;19.774;2024-01-15T05:45:30;99035.81;;;2.86;100.00
72961;BME280;61141;46.204;19.774;2024-01-15T05:48:33;99029.00;;;2.92;100.00
72961;BME280;61141;46.204;19.774;2024-01-15T05:51:36;99027.09;;;2.77;100.00
72961;BME280;61141;46.204;19.774;2024-01-15T05:54:39;99026.81;;;2.97;100.00
72961;BME280;61141;46.204;19.774;2024-01-15T05:57:42;99027.59;;;2.82;100.00
72961;BME280;61141;46.204;19.774;2024-01-15T06:00:45;99027.53;;;2.79;100.00
72961;BME280;61141;46.204;19.774;2024-01-15T06:03:49;99026.81;;;2.97;100.00
72961;BME280;61141;46.204;19.774;2024-01-15T06:06:51;99019.06;;;2.80;100.00
72961;BME280;61141;46.204;19.774;2024-01-15T06:09:55;99012.06;;;2.79;100.00
72961;BME280;61141;46.204;19.774;2024-01-15T06:12:59;99017.50;;;2.95;100.00
72961;BME280;61141;46.204;19.774;2024-01-15T06:16:02;99014.66;;;3.07;100.00
72961;BME280;61141;46.204;19.774;2024-01-15T06:19:08;99005.25;;;3.01;100.00
72961;BME280;61141;46.204;19.774;2024-01-15T06:22:11;99008.59;;;2.94;100.00
72961;BME280;61141;46.204;19.774;2024-01-15T06:25:13;99014.59;;;3.04;100.00
72961;BME280;61141;46.204;19.774;2024-01-15T06:28:16;99024.44;;;3.12;100.00
72961;BME280;61141;46.204;19.774;2024-01-15T06:31:19;99028.78;;;3.16;100.00
72961;BME280;61141;46.204;19.774;2024-01-15T06:34:22;98996.47;;;2.88;100.00
72961;BME280;61141;46.204;19.774;2024-01-15T06:37:25;99019.38;;;3.45;100.00
72961;BME280;61141;46.204;19.774;2024-01-15T06:40:28;99025.56;;;3.45;100.00
72961;BME280;61141;46.204;19.774;2024-01-15T06:43:30;99005.09;;;3.29;100.00
72961;BME280;61141;46.204;19.774;2024-01-15T06:46:34;99008.09;;;3.24;100.00
72961;BME280;61141;46.204;19.774;2024-01-15T06:49:37;99016.78;;;3.33;100.00
72961;BME280;61141;46.204;19.774;2024-01-15T06:52:40;99021.34;;;3.29;100.00
72961;BME280;61141;46.204;19.774;2024-01-15T06:55:42;99022.91;;;3.30;100.00
72961;BME280;61141;46.204;19.774;2024-01-15T06:58:45;99028.22;;;3.26;100.00
72961;BME280;61141;46.204;19.774;2024-01-15T07:01:48;99013.56;;;3.27;100.00
72961;BME280;61141;46.204;19.774;2024-01-15T07:04:51;99035.53;;;3.41;100.00
72961;BME280;61141;46.204;19.774;2024-01-15T07:07:54;99034.16;;;3.67;100.00
72961;BME280;61141;46.204;19.774;2024-01-15T07:10:57;99031.75;;;3.81;100.00
72961;BME280;61141;46.204;19.774;2024-01-15T07:13:59;99038.50;;;3.71;100.00
72961;BME280;61141;46.204;19.774;2024-01-15T07:17:02;99044.06;;;3.78;100.00
72961;BME280;61141;46.204;19.774;2024-01-15T07:20:08;99036.38;;;3.80;100.00
72961;BME280;61141;46.204;19.774;2024-01-15T07:23:12;99047.19;;;3.80;100.00
72961;BME280;61141;46.204;19.774;2024-01-15T07:26:14;99023.31;;;3.86;100.00
72961;BME280;61141;46.204;19.774;2024-01-15T07:29:17;99037.38;;;3.91;100.00
72961;BME280;61141;46.204;19.774;2024-01-15T07:32:20;99024.34;;;3.43;100.00
72961;BME280;61141;46.204;19.774;2024-01-15T07:35:23;99040.63;;;3.62;100.00
72961;BME280;61141;46.204;19.774;2024-01-15T07:38:26;99032.50;;;3.81;100.00
72961;BME280;61141;46.204;19.774;2024-01-15T07:41:29;99046.81;;;4.01;100.00
72961;BME280;61141;46.204;19.774;2024-01-15T07:44:31;99033.97;;;4.36;100.00
72961;BME280;61141;46.204;19.774;2024-01-15T07:47:34;99049.59;;;4.24;100.00
72961;BME280;61141;46.204;19.774;2024-01-15T07:50:37;99048.69;;;4.16;100.00
72961;BME280;61141;46.204;19.774;2024-01-15T07:53:40;99038.47;;;4.29;100.00
72961;BME280;61141;46.204;19.774;2024-01-15T07:56:54;99044.91;;;4.01;100.00
72961;BME280;61141;46.204;19.774;2024-01-15T07:59:57;99045.19;;;3.96;100.00
72961;BME280;61141;46.204;19.774;2024-01-15T08:02:59;99048.25;;;4.14;100.00
72961;BME280;61141;46.204;19.774;2024-01-15T08:06:02;99056.91;;;4.00;100.00
72961;BME280;61141;46.204;19.774;2024-01-15T08:09:05;99050.13;;;3.91;100.00
72961;BME280;61141;46.204;19.774;2024-01-15T08:12:08;99069.28;;;4.01;100.00
72961;BME280;61141;46.204;19.774;2024-01-15T08:15:12;99064.44;;;3.91;100.00
72961;BME280;61141;46.204;19.774;2024-01-15T08:18:16;99073.06;;;3.78;100.00
72961;BME280;61141;46.204;19.774;2024-01-15T08:21:19;99077.22;;;3.91;100.00
72961;BME280;61141;46.204;19.774;2024-01-15T08:24:22;99070.78;;;3.80;100.00
72961;BME280;61141;46.204;19.774;2024-01-15T08:27:24;99044.88;;;3.44;100.00
72961;BME280;61141;46.204;19.774;2024-01-15T08:30:27;99070.56;;;3.69;100.00
72961;BME280;61141;46.204;19.774;2024-01-15T08:33:31;99065.72;;;3.78;100.00
72961;BME280;61141;46.204;19.774;2024-01-15T08:36:34;99059.81;;;4.11;100.00
72961;BME280;61141;46.204;19.774;2024-01-15T08:39:38;99065.44;;;4.63;100.00
72961;BME280;61141;46.204;19.774;2024-01-15T08:42:41;99059.56;;;5.07;100.00
72961;BME280;61141;46.204;19.774;2024-01-15T08:45:44;99061.00;;;5.01;100.00
72961;BME280;61141;46.204;19.774;2024-01-15T08:48:48;99069.75;;;5.13;100.00
72961;BME280;61141;46.204;19.774;2024-01-15T08:51:51;99079.84;;;5.65;100.00
72961;BME280;61141;46.204;19.774;2024-01-15T08:54:54;99079.81;;;5.36;100.00
72961;BME280;61141;46.204;19.774;2024-01-15T08:57:57;99058.34;;;5.27;100.00
72961;BME280;61141;46.204;19.774;2024-01-15T09:01:00;99071.75;;;5.69;100.00
72961;BME280;61141;46.204;19.774;2024-01-15T09:04:03;99072.75;;;5.08;100.00
72961;BME280;61141;46.204;19.774;2024-01-15T09:07:07;99082.16;;;5.14;100.00
72961;BME280;61141;46.204;19.774;2024-01-15T09:10:10;99085.00;;;5.21;100.00
72961;BME280;61141;46.204;19.774;2024-01-15T09:13:12;99089.28;;;5.22;100.00
72961;BME280;61141;46.204;19.774;2024-01-15T09:16:15;99112.81;;;4.92;100.00
72961;BME280;61141;46.204;19.774;2024-01-15T09:19:19;99114.25;;;4.63;100.00
72961;BME280;61141;46.204;19.774;2024-01-15T09:22:21;99097.78;;;4.34;100.00
72961;BME280;61141;46.204;19.774;2024-01-15T09:25:24;99113.78;;;4.00;100.00
72961;BME280;61141;46.204;19.774;2024-01-15T09:28:27;99115.72;;;4.19;100.00
72961;BME280;61141;46.204;19.774;2024-01-15T09:31:30;99105.41;;;3.90;100.00
72961;BME280;61141;46.204;19.774;2024-01-15T09:34:34;99126.19;;;4.21;100.00
72961;BME280;61141;46.204;19.774;2024-01-15T09:37:39;99125.97;;;4.10;100.00
72961;BME280;61141;46.204;19.774;2024-01-15T09:40:49;99127.97;;;4.32;100.00
72961;BME280;61141;46.204;19.774;2024-01-15T09:43:53;99112.91;;;3.96;100.00
72961;BME280;61141;46.204;19.774;2024-01-15T09:46:55;99143.16;;;4.37;100.00
72961;BME280;61141;46.204;19.774;2024-01-15T09:49:59;99144.12;;;3.90;100.00
72961;BME280;61141;46.204;19.774;2024-01-15T09:53:02;99150.94;;;4.00;100.00
72961;BME280;61141;46.204;19.774;2024-01-15T09:56:07;99149.78;;;4.39;100.00
72961;BME280;61141;46.204;19.774;2024-01-15T09:59:11;99164.41;;;4.15;100.00
72961;BME280;61141;46.204;19.774;2024-01-15T10:02:16;99172.53;;;4.15;100.00
72961;BME280;61141;46.204;19.774;2024-01-15T10:05:21;99175.66;;;3.98;100.00
72961;BME280;61141;46.204;19.774;2024-01-15T10:08:24;99168.59;;;3.43;100.00
72961;BME280;61141;46.204;19.774;2024-01-15T10:11:28;99164.34;;;3.77;100.00
72961;BME280;61141;46.204;19.774;2024-01-15T10:14:30;99177.25;;;3.33;100.00
72961;BME280;61141;46.204;19.774;2024-01-15T10:17:36;99184.38;;;2.94;100.00
72961;BME280;61141;46.204;19.774;2024-01-15T10:20:39;99173.66;;;3.14;100.00
72961;BME280;61141;46.204;19.774;2024-01-15T10:23:42;99164.22;;;3.39;100.00
72961;BME280;61141;46.204;19.774;2024-01-15T10:26:45;99176.16;;;2.91;100.00
72961;BME280;61141;46.204;19.774;2024-01-15T10:29:48;99164.13;;;3.04;100.00
72961;BME280;61141;46.204;19.774;2024-01-15T10:33:02;99162.53;;;2.87;100.00
72961;BME280;61141;46.204;19.774;2024-01-15T10:36:09;99156.53;;;2.78;100.00
72961;BME280;61141;46.204;19.774;2024-01-15T10:39:13;99146.75;;;3.52;100.00
72961;BME280;61141;46.204;19.774;2024-01-15T10:42:16;99142.66;;;2.95;100.00
72961;BME280;61141;46.204;19.774;2024-01-15T10:45:21;99135.06;;;3.01;100.00
72961;BME280;61141;46.204;19.774;2024-01-15T10:48:25;99133.31;;;3.40;100.00
72961;BME280;61141;46.204;19.774;2024-01-15T10:51:31;99134.09;;;3.56;100.00
72961;BME280;61141;46.204;19.774;2024-01-15T10:54:36;99123.09;;;3.49;100.00
72961;BME280;61141;46.204;19.774;2024-01-15T10:57:40;99111.41;;;3.45;100.00
72961;BME280;61141;46.204;19.774;2024-01-15T11:00:43;99111.00;;;3.62;100.00
72961;BME280;61141;46.204;19.774;2024-01-15T11:03:46;99109.91;;;3.82;100.00
72961;BME280;61141;46.204;19.774;2024-01-15T11:06:52;99103.91;;;3.92;100.00
72961;BME280;61141;46.204;19.774;2024-01-15T11:09:57;99090.22;;;5.33;100.00
72961;BME280;61141;46.204;19.774;2024-01-15T11:13:02;99087.06;;;4.60;100.00
72961;BME280;61141;46.204;19.774;2024-01-15T11:16:10;99090.19;;;4.62;100.00
72961;BME280;61141;46.204;19.774;2024-01-15T11:19:13;99080.53;;;4.23;100.00
72961;BME280;61141;46.204;19.774;2024-01-15T11:25:35;99081.94;;;4.55;100.00
72961;BME280;61141;46.204;19.774;2024-01-15T11:28:49;99062.84;;;4.29;100.00
72961;BME280;61141;46.204;19.774;2024-01-15T11:31:56;99074.47;;;4.71;100.00
72961;BME280;61141;46.204;19.774;2024-01-15T11:34:59;99072.41;;;4.23;100.00
72961;BME280;61141;46.204;19.774;2024-01-15T11:38:06;99070.25;;;4.32;100.00
72961;BME280;61141;46.204;19.774;2024-01-15T11:41:15;99068.00;;;4.14;100.00
72961;BME280;61141;46.204;19.774;2024-01-15T11:44:19;99072.53;;;4.49;100.00
72961;BME280;61141;46.204;19.774;2024-01-15T11:47:46;99075.62;;;4.47;100.00
72961;BME280;61141;46.204;19.774;2024-01-15T11:50:58;99071.25;;;4.43;100.00
72961;BME280;61141;46.204;19.774;2024-01-15T11:54:05;99073.00;;;3.93;100.00
72961;BME280;61141;46.204;19.774;2024-01-15T11:57:32;99059.16;;;3.98;100.00
72961;BME280;61141;46.204;19.774;2024-01-15T12:00:48;99054.56;;;4.41;100.00
72961;BME280;61141;46.204;19.774;2024-01-15T12:03:54;99054.41;;;4.34;100.00
72961;BME280;61141;46.204;19.774;2024-01-15T12:06:57;99047.63;;;4.43;100.00
72961;BME280;61141;46.204;19.774;2024-01-15T12:10:01;99028.00;;;4.27;100.00
72961;BME280;61141;46.204;19.774;2024-01-15T12:13:13;99026.91;;;4.32;100.00
72961;BME280;61141;46.204;19.774;2024-01-15T12:16:17;99032.81;;;4.37;100.00
72961;BME280;61141;46.204;19.774;2024-01-15T12:19:19;99030.88;;;4.38;100.00
72961;BME280;61141;46.204;19.774;2024-01-15T12:22:22;99034.34;;;4.57;100.00
72961;BME280;61141;46.204;19.774;2024-01-15T12:25:26;99012.88;;;4.49;100.00
72961;BME280;61141;46.204;19.774;2024-01-15T12:28:32;98995.28;;;4.62;100.00
72961;BME280;61141;46.204;19.774;2024-01-15T12:31:35;99015.69;;;4.79;100.00
72961;BME280;61141;46.204;19.774;2024-01-15T12:34:38;99023.28;;;4.69;100.00
72961;BME280;61141;46.204;19.774;2024-01-15T12:37:42;99006.84;;;4.59;100.00
72961;BME280;61141;46.204;19.774;2024-01-15T12:40:45;99008.00;;;4.58;100.00
72961;BME280;61141;46.204;19.774;2024-01-15T12:43:49;99010.75;;;4.84;100.00
72961;BME280;61141;46.204;19.774;2024-01-15T12:46:52;98994.37;;;4.77;100.00
72961;BME280;61141;46.204;19.774;2024-01-15T12:49:55;99004.38;;;4.50;100.00
72961;BME280;61141;46.204;19.774;2024-01-15T12:53:11;99009.87;;;4.77;100.00
72961;BME280;61141;46.204;19.774;2024-01-15T12:56:14;99016.25;;;4.65;100.00
72961;BME280;61141;46.204;19.774;2024-01-15T12:59:17;99015.66;;;4.30;100.00
72961;BME280;61141;46.204;19.774;2024-01-15T13:02:20;99017.78;;;4.21;100.00
72961;BME280;61141;46.204;19.774;2024-01-15T13:05:23;99010.78;;;3.97;100.00
72961;BME280;61141;46.204;19.774;2024-01-15T13:08:27;99014.16;;;4.13;100.00
72961;BME280;61141;46.204;19.774;2024-01-15T13:11:32;99013.75;;;4.11;100.00
72961;BME280;61141;46.204;19.774;2024-01-15T13:14:35;99011.84;;;4.57;100.00
72961;BME280;61141;46.204;19.774;2024-01-15T13:17:40;99009.31;;;4.22;100.00
72961;BME280;61141;46.204;19.774;2024-01-15T13:20:46;99000.94;;;4.08;100.00
72961;BME280;61141;46.204;19.774;2024-01-15T13:23:49;98997.50;;;4.34;100.00
72961;BME280;61141;46.204;19.774;2024-01-15T13:26:52;99003.69;;;4.11;100.00
72961;BME280;61141;46.204;19.774;2024-01-15T13:29:55;98995.56;;;4.34;100.00
72961;BME280;61141;46.204;19.774;2024-01-15T13:32:58;98996.34;;;4.12;100.00
72961;BME280;61141;46.204;19.774;2024-01-15T13:36:07;98992.12;;;4.14;100.00
72961;BME280;61141;46.204;19.774;2024-01-15T13:39:13;98996.97;;;4.25;100.00
72961;BME280;61141;46.204;19.774;2024-01-15T13:42:19;98996.28;;;4.31;100.00
72961;BME280;61141;46.204;19.774;2024-01-15T13:45:24;98996.03;;;4.17;100.00
72961;BME280;61141;46.204;19.774;2024-01-15T13:48:27;99006.38;;;4.31;100.00
72961;BME280;61141;46.204;19.774;2024-01-15T13:51:30;98996.50;;;4.42;100.00
72961;BME280;61141;46.204;19.774;2024-01-15T13:54:33;98990.47;;;4.52;100.00
72961;BME280;61141;46.204;19.774;2024-01-15T13:57:51;98993.69;;;4.15;100.00
72961;BME280;61141;46.204;19.774;2024-01-15T14:00:54;98992.53;;;4.36;100.00
72961;BME280;61141;46.204;19.774;2024-01-15T14:03:57;98985.16;;;4.13;100.00
72961;BME280;61141;46.204;19.774;2024-01-15T14:07:00;98982.41;;;4.33;100.00
72961;BME280;61141;46.204;19.774;2024-01-15T14:10:03;98997.31;;;4.00;100.00
72961;BME280;61141;46.204;19.774;2024-01-15T14:13:06;98991.94;;;4.04;100.00
72961;BME280;61141;46.204;19.774;2024-01-15T14:16:09;98987.91;;;3.94;100.00
72961;BME280;61141;46.204;19.774;2024-01-15T14:19:16;98969.00;;;3.79;100.00
72961;BME280;61141;46.204;19.774;2024-01-15T14:22:21;98976.66;;;4.15;100.00
72961;BME280;61141;46.204;19.774;2024-01-15T14:25:23;98975.38;;;3.86;100.00
72961;BME280;61141;46.204;19.774;2024-01-15T14:28:27;98957.25;;;3.71;100.00
72961;BME280;61141;46.204;19.774;2024-01-15T14:31:29;98963.53;;;3.94;100.00
72961;BME280;61141;46.204;19.774;2024-01-15T14:34:33;98966.75;;;3.81;100.00
72961;BME280;61141;46.204;19.774;2024-01-15T14:37:39;98966.19;;;3.52;100.00
72961;BME280;61141;46.204;19.774;2024-01-15T14:40:42;98966.25;;;3.37;100.00
72961;BME280;61141;46.204;19.774;2024-01-15T14:43:46;98971.34;;;3.23;100.00
72961;BME280;61141;46.204;19.774;2024-01-15T14:46:50;98982.19;;;3.23;100.00
72961;BME280;61141;46.204;19.774;2024-01-15T14:49:52;98984.75;;;3.54;100.00
72961;BME280;61141;46.204;19.774;2024-01-15T14:52:55;98970.38;;;3.69;100.00
72961;BME280;61141;46.204;19.774;2024-01-15T14:55:58;98978.03;;;4.05;100.00
72961;BME280;61141;46.204;19.774;2024-01-15T14:59:01;98974.91;;;3.84;100.00
72961;BME280;61141;46.204;19.774;2024-01-15T15:02:04;98965.88;;;3.58;100.00
72961;BME280;61141;46.204;19.774;2024-01-15T15:05:08;98966.38;;;3.63;100.00
72961;BME280;61141;46.204;19.774;2024-01-15T15:08:13;98964.81;;;3.43;100.00
72961;BME280;61141;46.204;19.774;2024-01-15T15:11:16;98969.41;;;3.23;100.00
72961;BME280;61141;46.204;19.774;2024-01-15T15:14:19;98963.94;;;3.20;100.00
72961;BME280;61141;46.204;19.774;2024-01-15T15:17:22;98963.63;;;3.06;100.00
72961;BME280;61141;46.204;19.774;2024-01-15T15:20:24;98961.66;;;3.22;100.00
72961;BME280;61141;46.204;19.774;2024-01-15T15:23:27;98961.53;;;3.15;100.00
72961;BME280;61141;46.204;19.774;2024-01-15T15:26:30;98966.00;;;3.26;100.00
72961;BME280;61141;46.204;19.774;2024-01-15T15:29:33;98970.31;;;3.66;100.00
72961;BME280;61141;46.204;19.774;2024-01-15T15:32:39;98977.91;;;3.22;100.00
72961;BME280;61141;46.204;19.774;2024-01-15T15:35:42;98973.63;;;3.21;100.00
72961;BME280;61141;46.204;19.774;2024-01-15T15:38:44;98980.34;;;3.46;100.00
72961;BME280;61141;46.204;19.774;2024-01-15T15:41:48;98993.50;;;3.28;100.00
72961;BME280;61141;46.204;19.774;2024-01-15T15:44:51;98995.53;;;3.16;100.00
72961;BME280;61141;46.204;19.774;2024-01-15T15:47:59;98989.91;;;3.05;100.00
72961;BME280;61141;46.204;19.774;2024-01-15T15:51:02;98992.12;;;3.19;100.00
72961;BME280;61141;46.204;19.774;2024-01-15T15:54:06;98992.91;;;3.19;100.00
72961;BME280;61141;46.204;19.774;2024-01-15T15:57:09;98985.31;;;2.74;100.00
72961;BME280;61141;46.204;19.774;2024-01-15T16:00:12;98973.25;;;2.87;100.00